Pinto, Maryland
Current Conditions -  °F | °C
As of 11:42 AM on Tuesday 27 Jan 2015 (Local Time) from KCBE Reporting Station
Broken Clouds Broken Clouds  
Wind Chill: 30°   Ceiling: 6000
Heat Index: 30°   Visibility: 10mi
Dew Point: 18°   Wind: 0mph
Humidity: 60%   Direction: NA
Pressure: 29.91"   Gusts: NA
Location:  39.57°N, 78.84°W
Report Text: KCBE 271642Z AUTO 00000KT 10SM BKN060 M01/M08 A2991 RMK AO1
Loading
Personal Weather Stations






























Interactive Weather Map New forecast layout! Learn more

10-Day Weather Forecast

Advertisements
Track Severe Weather on mobile